sensor_id;sensor_type;location;lat;lon;timestamp;P1;durP1;ratioP1;P2;durP2;ratioP2
66633;SDS011;53546;52.184;5.596;2022-12-18T00:02:09;11.90;;;8.63;;
66633;SDS011;53546;52.184;5.596;2022-12-18T00:04:36;13.07;;;8.30;;
66633;SDS011;53546;52.184;5.596;2022-12-18T00:07:01;11.95;;;8.38;;
66633;SDS011;53546;52.184;5.596;2022-12-18T00:09:26;11.73;;;8.32;;
66633;SDS011;53546;52.184;5.596;2022-12-18T00:11:52;15.02;;;8.38;;
66633;SDS011;53546;52.184;5.596;2022-12-18T00:14:17;10.77;;;8.07;;
66633;SDS011;53546;52.184;5.596;2022-12-18T00:16:43;12.20;;;8.35;;
66633;SDS011;53546;52.184;5.596;2022-12-18T00:19:09;9.85;;;8.32;;
66633;SDS011;53546;52.184;5.596;2022-12-18T00:21:35;12.57;;;9.18;;
66633;SDS011;53546;52.184;5.596;2022-12-18T00:24:00;11.45;;;8.63;;
66633;SDS011;53546;52.184;5.596;2022-12-18T00:26:30;11.82;;;8.45;;
66633;SDS011;53546;52.184;5.596;2022-12-18T00:29:04;12.20;;;8.40;;
66633;SDS011;53546;52.184;5.596;2022-12-18T00:31:31;11.48;;;8.20;;
66633;SDS011;53546;52.184;5.596;2022-12-18T00:33:57;12.35;;;8.57;;
66633;SDS011;53546;52.184;5.596;2022-12-18T00:36:25;12.15;;;8.82;;
66633;SDS011;53546;52.184;5.596;2022-12-18T00:38:52;12.15;;;8.68;;
66633;SDS011;53546;52.184;5.596;2022-12-18T00:41:19;13.13;;;8.63;;
66633;SDS011;53546;52.184;5.596;2022-12-18T00:44:03;11.07;;;8.15;;
66633;SDS011;53546;52.184;5.596;2022-12-18T00:46:29;13.73;;;9.23;;
66633;SDS011;53546;52.184;5.596;2022-12-18T00:48:55;13.15;;;9.27;;
66633;SDS011;53546;52.184;5.596;2022-12-18T00:51:20;12.43;;;8.85;;
66633;SDS011;53546;52.184;5.596;2022-12-18T00:53:45;12.15;;;8.85;;
66633;SDS011;53546;52.184;5.596;2022-12-18T00:56:11;12.80;;;8.32;;
66633;SDS011;53546;52.184;5.596;2022-12-18T00:58:36;10.68;;;8.15;;
66633;SDS011;53546;52.184;5.596;2022-12-18T01:01:03;11.25;;;8.50;;
66633;SDS011;53546;52.184;5.596;2022-12-18T01:03:29;12.02;;;8.60;;
66633;SDS011;53546;52.184;5.596;2022-12-18T01:05:55;14.48;;;8.80;;
66633;SDS011;53546;52.184;5.596;2022-12-18T01:08:21;12.52;;;8.43;;
66633;SDS011;53546;52.184;5.596;2022-12-18T01:10:46;13.23;;;8.35;;
66633;SDS011;53546;52.184;5.596;2022-12-18T01:13:11;11.00;;;8.55;;
66633;SDS011;53546;52.184;5.596;2022-12-18T01:15:37;12.25;;;8.25;;
66633;SDS011;53546;52.184;5.596;2022-12-18T01:18:02;12.63;;;8.45;;
66633;SDS011;53546;52.184;5.596;2022-12-18T01:20:28;13.15;;;8.85;;
66633;SDS011;53546;52.184;5.596;2022-12-18T01:22:53;11.75;;;9.10;;
66633;SDS011;53546;52.184;5.596;2022-12-18T01:25:18;11.95;;;9.10;;
66633;SDS011;53546;52.184;5.596;2022-12-18T01:27:44;12.90;;;8.95;;
66633;SDS011;53546;52.184;5.596;2022-12-18T01:30:09;13.25;;;8.95;;
66633;SDS011;53546;52.184;5.596;2022-12-18T01:32:35;12.23;;;9.05;;
66633;SDS011;53546;52.184;5.596;2022-12-18T01:35:00;12.35;;;8.95;;
66633;SDS011;53546;52.184;5.596;2022-12-18T01:37:26;12.48;;;8.80;;
66633;SDS011;53546;52.184;5.596;2022-12-18T01:39:52;12.57;;;8.95;;
66633;SDS011;53546;52.184;5.596;2022-12-18T01:42:19;13.75;;;8.65;;
66633;SDS011;53546;52.184;5.596;2022-12-18T01:44:51;14.20;;;9.13;;
66633;SDS011;53546;52.184;5.596;2022-12-18T01:49:51;12.75;;;8.55;;
66633;SDS011;53546;52.184;5.596;2022-12-18T01:52:17;13.05;;;9.48;;
66633;SDS011;53546;52.184;5.596;2022-12-18T01:54:44;13.43;;;9.07;;
66633;SDS011;53546;52.184;5.596;2022-12-18T01:57:10;12.82;;;9.02;;
66633;SDS011;53546;52.184;5.596;2022-12-18T01:59:35;13.40;;;9.63;;
66633;SDS011;53546;52.184;5.596;2022-12-18T02:02:01;15.63;;;10.00;;
66633;SDS011;53546;52.184;5.596;2022-12-18T02:04:27;14.30;;;9.40;;
66633;SDS011;53546;52.184;5.596;2022-12-18T02:09:46;15.32;;;9.45;;
66633;SDS011;53546;52.184;5.596;2022-12-18T02:12:21;12.98;;;9.38;;
66633;SDS011;53546;52.184;5.596;2022-12-18T02:15:09;13.55;;;9.32;;
66633;SDS011;53546;52.184;5.596;2022-12-18T02:26:42;14.77;;;9.57;;
66633;SDS011;53546;52.184;5.596;2022-12-18T02:31:36;25.15;;;8.40;;
66633;SDS011;53546;52.184;5.596;2022-12-18T02:34:06;13.32;;;9.70;;
66633;SDS011;53546;52.184;5.596;2022-12-18T02:36:33;13.23;;;9.20;;
66633;SDS011;53546;52.184;5.596;2022-12-18T02:38:59;14.05;;;8.82;;
66633;SDS011;53546;52.184;5.596;2022-12-18T02:41:25;11.85;;;8.70;;
66633;SDS011;53546;52.184;5.596;2022-12-18T02:43:57;12.40;;;9.02;;
66633;SDS011;53546;52.184;5.596;2022-12-18T02:46:33;13.50;;;8.90;;
66633;SDS011;53546;52.184;5.596;2022-12-18T02:49:06;13.70;;;9.70;;
66633;SDS011;53546;52.184;5.596;2022-12-18T02:51:48;13.77;;;9.18;;
66633;SDS011;53546;52.184;5.596;2022-12-18T02:57:40;13.90;;;9.40;;
66633;SDS011;53546;52.184;5.596;2022-12-18T03:00:14;10.60;;;8.20;;
66633;SDS011;53546;52.184;5.596;2022-12-18T03:02:45;11.10;;;8.38;;
66633;SDS011;53546;52.184;5.596;2022-12-18T03:05:15;12.82;;;8.23;;
66633;SDS011;53546;52.184;5.596;2022-12-18T03:07:46;12.20;;;8.32;;
66633;SDS011;53546;52.184;5.596;2022-12-18T03:10:22;13.38;;;9.07;;
66633;SDS011;53546;52.184;5.596;2022-12-18T03:12:52;12.35;;;8.30;;
66633;SDS011;53546;52.184;5.596;2022-12-18T03:15:20;12.60;;;8.32;;
66633;SDS011;53546;52.184;5.596;2022-12-18T03:17:52;11.73;;;8.45;;
66633;SDS011;53546;52.184;5.596;2022-12-18T03:20:22;12.65;;;8.93;;
66633;SDS011;53546;52.184;5.596;2022-12-18T03:22:51;12.57;;;8.60;;
66633;SDS011;53546;52.184;5.596;2022-12-18T03:25:18;13.15;;;8.35;;
66633;SDS011;53546;52.184;5.596;2022-12-18T03:27:48;13.90;;;9.13;;
66633;SDS011;53546;52.184;5.596;2022-12-18T03:30:14;12.70;;;8.88;;
66633;SDS011;53546;52.184;5.596;2022-12-18T03:35:29;11.98;;;8.43;;
66633;SDS011;53546;52.184;5.596;2022-12-18T03:37:56;10.88;;;7.97;;
66633;SDS011;53546;52.184;5.596;2022-12-18T03:40:21;12.65;;;8.10;;
66633;SDS011;53546;52.184;5.596;2022-12-18T03:42:51;14.23;;;8.63;;
66633;SDS011;53546;52.184;5.596;2022-12-18T03:45:34;12.35;;;8.98;;
66633;SDS011;53546;52.184;5.596;2022-12-18T03:48:19;11.68;;;8.38;;
66633;SDS011;53546;52.184;5.596;2022-12-18T03:50:50;12.85;;;8.23;;
66633;SDS011;53546;52.184;5.596;2022-12-18T03:53:24;11.38;;;8.25;;
66633;SDS011;53546;52.184;5.596;2022-12-18T03:55:51;11.98;;;7.90;;
66633;SDS011;53546;52.184;5.596;2022-12-18T03:58:18;12.05;;;7.78;;
66633;SDS011;53546;52.184;5.596;2022-12-18T04:00:46;11.02;;;7.68;;
66633;SDS011;53546;52.184;5.596;2022-12-18T04:03:12;10.02;;;8.02;;
66633;SDS011;53546;52.184;5.596;2022-12-18T04:05:38;10.98;;;7.93;;
66633;SDS011;53546;52.184;5.596;2022-12-18T04:08:05;19.58;;;8.38;;
66633;SDS011;53546;52.184;5.596;2022-12-18T04:10:30;18.38;;;7.45;;
66633;SDS011;53546;52.184;5.596;2022-12-18T04:12:56;10.73;;;8.10;;
66633;SDS011;53546;52.184;5.596;2022-12-18T04:15:22;10.18;;;7.78;;
66633;SDS011;53546;52.184;5.596;2022-12-18T04:17:48;11.63;;;7.43;;
66633;SDS011;53546;52.184;5.596;2022-12-18T04:20:14;11.02;;;7.88;;
66633;SDS011;53546;52.184;5.596;2022-12-18T04:22:40;10.77;;;8.20;;
66633;SDS011;53546;52.184;5.596;2022-12-18T04:25:05;10.13;;;7.57;;
66633;SDS011;53546;52.184;5.596;2022-12-18T04:27:31;11.85;;;7.55;;
66633;SDS011;53546;52.184;5.596;2022-12-18T04:29:56;11.18;;;7.55;;
66633;SDS011;53546;52.184;5.596;2022-12-18T04:32:21;10.77;;;7.40;;
66633;SDS011;53546;52.184;5.596;2022-12-18T04:34:47;10.63;;;7.50;;
66633;SDS011;53546;52.184;5.596;2022-12-18T04:37:12;11.15;;;7.57;;
66633;SDS011;53546;52.184;5.596;2022-12-18T04:39:38;11.98;;;7.50;;
66633;SDS011;53546;52.184;5.596;2022-12-18T04:42:03;9.85;;;7.25;;
66633;SDS011;53546;52.184;5.596;2022-12-18T04:44:28;10.20;;;7.18;;
66633;SDS011;53546;52.184;5.596;2022-12-18T04:46:54;9.95;;;6.80;;
66633;SDS011;53546;52.184;5.596;2022-12-18T04:49:19;9.23;;;6.88;;
66633;SDS011;53546;52.184;5.596;2022-12-18T04:51:44;10.18;;;7.25;;
66633;SDS011;53546;52.184;5.596;2022-12-18T04:54:10;8.93;;;6.80;;
66633;SDS011;53546;52.184;5.596;2022-12-18T04:56:35;9.85;;;6.80;;
66633;SDS011;53546;52.184;5.596;2022-12-18T04:59:00;9.20;;;7.10;;
66633;SDS011;53546;52.184;5.596;2022-12-18T05:01:26;10.00;;;7.13;;
66633;SDS011;53546;52.184;5.596;2022-12-18T05:03:51;9.63;;;7.07;;
66633;SDS011;53546;52.184;5.596;2022-12-18T05:06:17;9.30;;;6.85;;
66633;SDS011;53546;52.184;5.596;2022-12-18T05:08:44;10.23;;;7.03;;
66633;SDS011;53546;52.184;5.596;2022-12-18T05:11:10;9.10;;;6.55;;
66633;SDS011;53546;52.184;5.596;2022-12-18T05:13:37;8.98;;;6.70;;
66633;SDS011;53546;52.184;5.596;2022-12-18T05:16:02;9.40;;;6.97;;
66633;SDS011;53546;52.184;5.596;2022-12-18T05:18:28;8.75;;;6.82;;
66633;SDS011;53546;52.184;5.596;2022-12-18T05:20:54;10.68;;;6.70;;
66633;SDS011;53546;52.184;5.596;2022-12-18T05:23:20;8.82;;;5.95;;
66633;SDS011;53546;52.184;5.596;2022-12-18T05:25:47;8.82;;;6.72;;
66633;SDS011;53546;52.184;5.596;2022-12-18T05:28:16;9.68;;;6.10;;
66633;SDS011;53546;52.184;5.596;2022-12-18T05:30:41;10.38;;;6.60;;
66633;SDS011;53546;52.184;5.596;2022-12-18T05:33:06;9.18;;;6.07;;
66633;SDS011;53546;52.184;5.596;2022-12-18T05:35:32;9.20;;;5.93;;
66633;SDS011;53546;52.184;5.596;2022-12-18T05:37:57;9.15;;;6.05;;
66633;SDS011;53546;52.184;5.596;2022-12-18T05:40:22;7.55;;;5.85;;
66633;SDS011;53546;52.184;5.596;2022-12-18T05:42:48;9.43;;;5.50;;
66633;SDS011;53546;52.184;5.596;2022-12-18T05:45:13;7.30;;;5.40;;
66633;SDS011;53546;52.184;5.596;2022-12-18T05:47:39;8.18;;;5.70;;
66633;SDS011;53546;52.184;5.596;2022-12-18T05:50:04;8.02;;;5.70;;
66633;SDS011;53546;52.184;5.596;2022-12-18T05:52:30;7.30;;;5.47;;
66633;SDS011;53546;52.184;5.596;2022-12-18T05:54:55;7.63;;;5.78;;
66633;SDS011;53546;52.184;5.596;2022-12-18T05:57:21;8.40;;;5.30;;
66633;SDS011;53546;52.184;5.596;2022-12-18T05:59:46;7.15;;;5.68;;
66633;SDS011;53546;52.184;5.596;2022-12-18T06:02:11;7.60;;;5.60;;
66633;SDS011;53546;52.184;5.596;2022-12-18T06:04:37;7.75;;;5.22;;
66633;SDS011;53546;52.184;5.596;2022-12-18T06:07:02;7.20;;;5.20;;
66633;SDS011;53546;52.184;5.596;2022-12-18T06:09:28;6.25;;;4.47;;
66633;SDS011;53546;52.184;5.596;2022-12-18T06:11:54;9.60;;;5.38;;
66633;SDS011;53546;52.184;5.596;2022-12-18T06:14:19;6.32;;;4.70;;
66633;SDS011;53546;52.184;5.596;2022-12-18T06:16:44;8.27;;;4.95;;
66633;SDS011;53546;52.184;5.596;2022-12-18T06:19:12;9.65;;;4.90;;
66633;SDS011;53546;52.184;5.596;2022-12-18T06:21:40;6.13;;;4.82;;
66633;SDS011;53546;52.184;5.596;2022-12-18T06:24:05;7.72;;;4.97;;
66633;SDS011;53546;52.184;5.596;2022-12-18T06:26:31;6.82;;;5.03;;
66633;SDS011;53546;52.184;5.596;2022-12-18T06:28:56;9.00;;;4.63;;
66633;SDS011;53546;52.184;5.596;2022-12-18T06:31:21;6.60;;;4.90;;
66633;SDS011;53546;52.184;5.596;2022-12-18T06:33:47;6.50;;;4.80;;
66633;SDS011;53546;52.184;5.596;2022-12-18T06:36:12;8.27;;;4.65;;
66633;SDS011;53546;52.184;5.596;2022-12-18T06:38:39;6.05;;;5.00;;
66633;SDS011;53546;52.184;5.596;2022-12-18T06:41:19;7.15;;;4.93;;
66633;SDS011;53546;52.184;5.596;2022-12-18T06:43:45;5.63;;;4.32;;
66633;SDS011;53546;52.184;5.596;2022-12-18T06:46:11;6.70;;;4.65;;
66633;SDS011;53546;52.184;5.596;2022-12-18T06:48:36;5.82;;;4.55;;
66633;SDS011;53546;52.184;5.596;2022-12-18T06:51:02;6.68;;;4.45;;
66633;SDS011;53546;52.184;5.596;2022-12-18T06:53:28;10.00;;;4.70;;
66633;SDS011;53546;52.184;5.596;2022-12-18T06:56:03;5.97;;;4.30;;
66633;SDS011;53546;52.184;5.596;2022-12-18T06:58:31;8.25;;;4.68;;
66633;SDS011;53546;52.184;5.596;2022-12-18T07:01:03;4.43;;;3.78;;
66633;SDS011;53546;52.184;5.596;2022-12-18T07:03:29;8.50;;;4.47;;
66633;SDS011;53546;52.184;5.596;2022-12-18T07:05:55;14.55;;;4.50;;
66633;SDS011;53546;52.184;5.596;2022-12-18T07:08:20;5.07;;;4.03;;
66633;SDS011;53546;52.184;5.596;2022-12-18T07:10:46;6.68;;;4.32;;
66633;SDS011;53546;52.184;5.596;2022-12-18T07:13:11;6.25;;;4.30;;
66633;SDS011;53546;52.184;5.596;2022-12-18T07:15:37;6.75;;;4.22;;
66633;SDS011;53546;52.184;5.596;2022-12-18T07:18:02;9.90;;;5.47;;
66633;SDS011;53546;52.184;5.596;2022-12-18T07:20:28;6.45;;;4.35;;
66633;SDS011;53546;52.184;5.596;2022-12-18T07:22:56;6.70;;;4.30;;
66633;SDS011;53546;52.184;5.596;2022-12-18T07:25:21;4.97;;;3.85;;
66633;SDS011;53546;52.184;5.596;2022-12-18T07:27:46;6.13;;;4.28;;
66633;SDS011;53546;52.184;5.596;2022-12-18T07:30:14;8.18;;;4.32;;
66633;SDS011;53546;52.184;5.596;2022-12-18T07:32:40;10.07;;;4.90;;
66633;SDS011;53546;52.184;5.596;2022-12-18T07:35:05;9.70;;;4.57;;
66633;SDS011;53546;52.184;5.596;2022-12-18T07:37:31;6.30;;;4.28;;
66633;SDS011;53546;52.184;5.596;2022-12-18T07:40:02;5.97;;;4.15;;
66633;SDS011;53546;52.184;5.596;2022-12-18T07:42:28;8.65;;;4.32;;
66633;SDS011;53546;52.184;5.596;2022-12-18T07:44:57;5.07;;;3.65;;
66633;SDS011;53546;52.184;5.596;2022-12-18T07:47:27;6.75;;;3.60;;
66633;SDS011;53546;52.184;5.596;2022-12-18T07:49:53;5.90;;;3.70;;
66633;SDS011;53546;52.184;5.596;2022-12-18T07:52:18;5.35;;;3.78;;
66633;SDS011;53546;52.184;5.596;2022-12-18T07:54:44;11.02;;;4.20;;
66633;SDS011;53546;52.184;5.596;2022-12-18T07:57:09;5.15;;;3.80;;
66633;SDS011;53546;52.184;5.596;2022-12-18T07:59:35;4.85;;;3.53;;
66633;SDS011;53546;52.184;5.596;2022-12-18T08:02:00;6.35;;;4.13;;
66633;SDS011;53546;52.184;5.596;2022-12-18T08:04:26;6.22;;;4.05;;
66633;SDS011;53546;52.184;5.596;2022-12-18T08:06:51;4.50;;;3.55;;
66633;SDS011;53546;52.184;5.596;2022-12-18T08:09:17;8.48;;;3.88;;
66633;SDS011;53546;52.184;5.596;2022-12-18T08:11:42;5.05;;;3.70;;
66633;SDS011;53546;52.184;5.596;2022-12-18T08:14:08;5.65;;;3.78;;
66633;SDS011;53546;52.184;5.596;2022-12-18T08:16:36;7.32;;;3.80;;
66633;SDS011;53546;52.184;5.596;2022-12-18T08:19:01;7.57;;;4.20;;
66633;SDS011;53546;52.184;5.596;2022-12-18T08:21:27;11.50;;;4.18;;
66633;SDS011;53546;52.184;5.596;2022-12-18T08:23:55;6.72;;;4.32;;
66633;SDS011;53546;52.184;5.596;2022-12-18T08:26:22;19.38;;;5.47;;
66633;SDS011;53546;52.184;5.596;2022-12-18T08:28:51;17.80;;;5.40;;
66633;SDS011;53546;52.184;5.596;2022-12-18T08:31:19;11.57;;;4.60;;
66633;SDS011;53546;52.184;5.596;2022-12-18T08:33:44;15.40;;;4.78;;
66633;SDS011;53546;52.184;5.596;2022-12-18T08:36:10;11.07;;;4.40;;
66633;SDS011;53546;52.184;5.596;2022-12-18T08:38:36;12.70;;;4.70;;
66633;SDS011;53546;52.184;5.596;2022-12-18T08:41:02;12.35;;;4.40;;
66633;SDS011;53546;52.184;5.596;2022-12-18T08:43:29;7.22;;;4.07;;
66633;SDS011;53546;52.184;5.596;2022-12-18T08:46:13;10.43;;;4.32;;
66633;SDS011;53546;52.184;5.596;2022-12-18T08:48:41;10.45;;;4.50;;
66633;SDS011;53546;52.184;5.596;2022-12-18T08:51:07;10.68;;;4.55;;
66633;SDS011;53546;52.184;5.596;2022-12-18T08:53:34;11.40;;;4.68;;
66633;SDS011;53546;52.184;5.596;2022-12-18T08:56:00;7.85;;;4.32;;
66633;SDS011;53546;52.184;5.596;2022-12-18T08:58:25;11.75;;;4.13;;
66633;SDS011;53546;52.184;5.596;2022-12-18T09:00:51;9.57;;;4.05;;
66633;SDS011;53546;52.184;5.596;2022-12-18T09:03:17;6.03;;;3.83;;
66633;SDS011;53546;52.184;5.596;2022-12-18T09:05:43;20.02;;;4.20;;
66633;SDS011;53546;52.184;5.596;2022-12-18T09:08:08;7.85;;;3.90;;
66633;SDS011;53546;52.184;5.596;2022-12-18T09:10:40;13.07;;;4.22;;
66633;SDS011;53546;52.184;5.596;2022-12-18T09:13:06;12.15;;;4.78;;
66633;SDS011;53546;52.184;5.596;2022-12-18T09:15:32;15.88;;;4.20;;
66633;SDS011;53546;52.184;5.596;2022-12-18T09:17:57;12.05;;;4.53;;
66633;SDS011;53546;52.184;5.596;2022-12-18T09:20:22;20.02;;;4.95;;
66633;SDS011;53546;52.184;5.596;2022-12-18T09:22:48;10.73;;;3.97;;
66633;SDS011;53546;52.184;5.596;2022-12-18T09:25:13;9.00;;;4.38;;
66633;SDS011;53546;52.184;5.596;2022-12-18T09:27:38;13.65;;;4.88;;
66633;SDS011;53546;52.184;5.596;2022-12-18T09:30:04;10.95;;;4.72;;
66633;SDS011;53546;52.184;5.596;2022-12-18T09:32:30;9.10;;;4.50;;
66633;SDS011;53546;52.184;5.596;2022-12-18T09:34:55;16.20;;;4.95;;
66633;SDS011;53546;52.184;5.596;2022-12-18T09:37:21;16.70;;;5.40;;
66633;SDS011;53546;52.184;5.596;2022-12-18T09:39:46;12.95;;;4.90;;
66633;SDS011;53546;52.184;5.596;2022-12-18T09:42:17;9.32;;;4.75;;
66633;SDS011;53546;52.184;5.596;2022-12-18T09:49:56;12.95;;;4.07;;
66633;SDS011;53546;52.184;5.596;2022-12-18T09:52:25;8.85;;;4.45;;
66633;SDS011;53546;52.184;5.596;2022-12-18T09:55:05;9.77;;;4.47;;
66633;SDS011;53546;52.184;5.596;2022-12-18T09:57:36;9.98;;;4.50;;
66633;SDS011;53546;52.184;5.596;2022-12-18T10:02:43;13.82;;;4.20;;
66633;SDS011;53546;52.184;5.596;2022-12-18T10:10:41;6.97;;;3.85;;
66633;SDS011;53546;52.184;5.596;2022-12-18T10:21:38;8.88;;;3.42;;
66633;SDS011;53546;52.184;5.596;2022-12-18T10:26:43;5.35;;;3.42;;
66633;SDS011;53546;52.184;5.596;2022-12-18T10:29:13;5.95;;;3.25;;
66633;SDS011;53546;52.184;5.596;2022-12-18T10:31:39;7.57;;;3.50;;
66633;SDS011;53546;52.184;5.596;2022-12-18T10:34:08;11.68;;;4.07;;
66633;SDS011;53546;52.184;5.596;2022-12-18T10:36:34;11.95;;;3.90;;
66633;SDS011;53546;52.184;5.596;2022-12-18T10:39:14;7.13;;;3.20;;
66633;SDS011;53546;52.184;5.596;2022-12-18T10:41:41;10.57;;;3.88;;
66633;SDS011;53546;52.184;5.596;2022-12-18T10:44:10;5.90;;;3.65;;
66633;SDS011;53546;52.184;5.596;2022-12-18T10:46:37;5.95;;;3.63;;
66633;SDS011;53546;52.184;5.596;2022-12-18T10:49:03;7.80;;;3.50;;
66633;SDS011;53546;52.184;5.596;2022-12-18T10:51:30;7.00;;;3.55;;
66633;SDS011;53546;52.184;5.596;2022-12-18T10:56:30;5.38;;;3.45;;
66633;SDS011;53546;52.184;5.596;2022-12-18T10:59:04;5.38;;;3.50;;
66633;SDS011;53546;52.184;5.596;2022-12-18T11:01:44;8.27;;;3.67;;
66633;SDS011;53546;52.184;5.596;2022-12-18T11:04:13;6.93;;;3.30;;
66633;SDS011;53546;52.184;5.596;2022-12-18T11:06:52;7.82;;;3.40;;
66633;SDS011;53546;52.184;5.596;2022-12-18T11:09:23;5.63;;;3.00;;
66633;SDS011;53546;52.184;5.596;2022-12-18T11:11:50;5.00;;;3.05;;
66633;SDS011;53546;52.184;5.596;2022-12-18T11:14:21;5.53;;;3.38;;
66633;SDS011;53546;52.184;5.596;2022-12-18T11:16:48;4.93;;;3.30;;
66633;SDS011;53546;52.184;5.596;2022-12-18T11:19:19;5.80;;;3.42;;
66633;SDS011;53546;52.184;5.596;2022-12-18T11:21:54;5.53;;;3.20;;
66633;SDS011;53546;52.184;5.596;2022-12-18T11:24:24;5.10;;;3.38;;
66633;SDS011;53546;52.184;5.596;2022-12-18T11:26:53;4.82;;;3.28;;
66633;SDS011;53546;52.184;5.596;2022-12-18T11:29:24;4.03;;;3.20;;
66633;SDS011;53546;52.184;5.596;2022-12-18T11:34:46;6.30;;;2.90;;
66633;SDS011;53546;52.184;5.596;2022-12-18T11:37:14;4.35;;;3.40;;
66633;SDS011;53546;52.184;5.596;2022-12-18T11:39:58;4.85;;;3.30;;
66633;SDS011;53546;52.184;5.596;2022-12-18T11:47:43;5.82;;;4.00;;
66633;SDS011;53546;52.184;5.596;2022-12-18T11:50:17;4.95;;;3.42;;
66633;SDS011;53546;52.184;5.596;2022-12-18T11:52:44;4.15;;;3.50;;
66633;SDS011;53546;52.184;5.596;2022-12-18T11:55:11;6.13;;;3.33;;
66633;SDS011;53546;52.184;5.596;2022-12-18T12:00:35;8.50;;;3.33;;
66633;SDS011;53546;52.184;5.596;2022-12-18T12:08:47;5.50;;;3.80;;
66633;SDS011;53546;52.184;5.596;2022-12-18T12:11:34;5.72;;;3.92;;
66633;SDS011;53546;52.184;5.596;2022-12-18T12:17:42;6.00;;;4.28;;
66633;SDS011;53546;52.184;5.596;2022-12-18T12:25:49;7.05;;;3.78;;
66633;SDS011;53546;52.184;5.596;2022-12-18T12:28:35;4.65;;;3.88;;
66633;SDS011;53546;52.184;5.596;2022-12-18T12:39:38;6.15;;;4.10;;
66633;SDS011;53546;52.184;5.596;2022-12-18T12:42:08;5.10;;;3.83;;
66633;SDS011;53546;52.184;5.596;2022-12-18T12:44:56;5.35;;;4.03;;
66633;SDS011;53546;52.184;5.596;2022-12-18T12:47:25;4.25;;;3.28;;
66633;SDS011;53546;52.184;5.596;2022-12-18T12:49:52;5.55;;;4.05;;
66633;SDS011;53546;52.184;5.596;2022-12-18T12:52:41;6.15;;;3.80;;
66633;SDS011;53546;52.184;5.596;2022-12-18T12:55:07;7.15;;;4.30;;
66633;SDS011;53546;52.184;5.596;2022-12-18T12:57:40;5.90;;;4.03;;
66633;SDS011;53546;52.184;5.596;2022-12-18T13:00:09;4.38;;;3.50;;
66633;SDS011;53546;52.184;5.596;2022-12-18T13:05:24;7.15;;;4.05;;
66633;SDS011;53546;52.184;5.596;2022-12-18T13:07:52;5.28;;;3.90;;
66633;SDS011;53546;52.184;5.596;2022-12-18T13:12:55;6.93;;;3.88;;
66633;SDS011;53546;52.184;5.596;2022-12-18T13:15:39;4.43;;;3.50;;
66633;SDS011;53546;52.184;5.596;2022-12-18T13:18:19;5.22;;;3.92;;
66633;SDS011;53546;52.184;5.596;2022-12-18T13:25:49;6.40;;;3.40;;
66633;SDS011;53546;52.184;5.596;2022-12-18T13:30:58;8.70;;;4.40;;
66633;SDS011;53546;52.184;5.596;2022-12-18T13:38:39;9.57;;;4.82;;
66633;SDS011;53546;52.184;5.596;2022-12-18T13:41:20;6.20;;;3.90;;
66633;SDS011;53546;52.184;5.596;2022-12-18T13:43:48;5.10;;;3.88;;
66633;SDS011;53546;52.184;5.596;2022-12-18T13:49:01;4.30;;;3.63;;
66633;SDS011;53546;52.184;5.596;2022-12-18T13:51:29;6.72;;;4.43;;
66633;SDS011;53546;52.184;5.596;2022-12-18T13:54:00;8.35;;;4.20;;
66633;SDS011;53546;52.184;5.596;2022-12-18T13:56:28;5.63;;;3.88;;
66633;SDS011;53546;52.184;5.596;2022-12-18T14:01:33;4.97;;;3.95;;
66633;SDS011;53546;52.184;5.596;2022-12-18T14:04:08;6.03;;;4.05;;
66633;SDS011;53546;52.184;5.596;2022-12-18T14:06:41;5.47;;;4.43;;
66633;SDS011;53546;52.184;5.596;2022-12-18T14:09:09;5.13;;;3.85;;
66633;SDS011;53546;52.184;5.596;2022-12-18T14:11:38;7.13;;;4.10;;
66633;SDS011;53546;52.184;5.596;2022-12-18T14:14:03;5.30;;;3.53;;
66633;SDS011;53546;52.184;5.596;2022-12-18T14:16:32;6.20;;;4.50;;
66633;SDS011;53546;52.184;5.596;2022-12-18T14:18:57;4.68;;;3.78;;
66633;SDS011;53546;52.184;5.596;2022-12-18T14:21:27;6.53;;;4.07;;
66633;SDS011;53546;52.184;5.596;2022-12-18T14:26:46;9.82;;;4.32;;
66633;SDS011;53546;52.184;5.596;2022-12-18T14:32:04;10.52;;;4.10;;
66633;SDS011;53546;52.184;5.596;2022-12-18T14:37:21;7.63;;;4.25;;
66633;SDS011;53546;52.184;5.596;2022-12-18T14:42:20;5.82;;;3.60;;
66633;SDS011;53546;52.184;5.596;2022-12-18T14:44:45;5.18;;;3.97;;
66633;SDS011;53546;52.184;5.596;2022-12-18T14:50:02;4.10;;;3.25;;
66633;SDS011;53546;52.184;5.596;2022-12-18T14:52:29;5.55;;;3.92;;
66633;SDS011;53546;52.184;5.596;2022-12-18T14:54:56;4.75;;;4.07;;
66633;SDS011;53546;52.184;5.596;2022-12-18T14:57:24;11.70;;;3.60;;
66633;SDS011;53546;52.184;5.596;2022-12-18T14:59:51;6.07;;;3.92;;
66633;SDS011;53546;52.184;5.596;2022-12-18T15:02:23;12.60;;;3.85;;
66633;SDS011;53546;52.184;5.596;2022-12-18T15:05:00;4.72;;;3.70;;
66633;SDS011;53546;52.184;5.596;2022-12-18T15:07:38;5.18;;;3.67;;
66633;SDS011;53546;52.184;5.596;2022-12-18T15:10:12;5.25;;;3.70;;
66633;SDS011;53546;52.184;5.596;2022-12-18T15:15:50;4.93;;;3.42;;
66633;SDS011;53546;52.184;5.596;2022-12-18T15:20:46;4.50;;;3.78;;
66633;SDS011;53546;52.184;5.596;2022-12-18T15:23:17;6.00;;;3.50;;
66633;SDS011;53546;52.184;5.596;2022-12-18T15:25:43;4.38;;;3.53;;
66633;SDS011;53546;52.184;5.596;2022-12-18T15:31:06;8.00;;;4.32;;
66633;SDS011;53546;52.184;5.596;2022-12-18T15:33:33;5.00;;;3.45;;
66633;SDS011;53546;52.184;5.596;2022-12-18T15:36:02;4.88;;;3.60;;
66633;SDS011;53546;52.184;5.596;2022-12-18T15:38:29;5.47;;;3.22;;
66633;SDS011;53546;52.184;5.596;2022-12-18T15:40:54;4.68;;;3.80;;
66633;SDS011;53546;52.184;5.596;2022-12-18T15:43:21;4.30;;;3.30;;
66633;SDS011;53546;52.184;5.596;2022-12-18T15:46:21;4.75;;;3.65;;
66633;SDS011;53546;52.184;5.596;2022-12-18T15:48:47;3.90;;;3.40;;
66633;SDS011;53546;52.184;5.596;2022-12-18T15:53:40;5.05;;;3.40;;
66633;SDS011;53546;52.184;5.596;2022-12-18T15:56:08;4.55;;;3.35;;
66633;SDS011;53546;52.184;5.596;2022-12-18T15:58:54;4.28;;;3.03;;
66633;SDS011;53546;52.184;5.596;2022-12-18T16:01:19;4.57;;;3.33;;
66633;SDS011;53546;52.184;5.596;2022-12-18T16:03:45;5.32;;;3.25;;
66633;SDS011;53546;52.184;5.596;2022-12-18T16:06:11;6.20;;;3.63;;
66633;SDS011;53546;52.184;5.596;2022-12-18T16:08:36;10.55;;;3.90;;
66633;SDS011;53546;52.184;5.596;2022-12-18T16:11:02;3.60;;;3.20;;
66633;SDS011;53546;52.184;5.596;2022-12-18T16:13:27;4.57;;;3.50;;
66633;SDS011;53546;52.184;5.596;2022-12-18T16:15:53;4.35;;;3.78;;
66633;SDS011;53546;52.184;5.596;2022-12-18T16:18:18;5.47;;;4.05;;
66633;SDS011;53546;52.184;5.596;2022-12-18T16:20:44;3.70;;;3.28;;
66633;SDS011;53546;52.184;5.596;2022-12-18T16:23:09;4.40;;;3.50;;
66633;SDS011;53546;52.184;5.596;2022-12-18T16:25:35;4.00;;;3.13;;
66633;SDS011;53546;52.184;5.596;2022-12-18T16:28:00;5.10;;;3.70;;
66633;SDS011;53546;52.184;5.596;2022-12-18T16:30:27;6.18;;;3.78;;
66633;SDS011;53546;52.184;5.596;2022-12-18T16:32:56;6.22;;;4.07;;
66633;SDS011;53546;52.184;5.596;2022-12-18T16:35:23;4.72;;;3.72;;
66633;SDS011;53546;52.184;5.596;2022-12-18T16:37:49;4.63;;;3.60;;
66633;SDS011;53546;52.184;5.596;2022-12-18T16:40:15;4.78;;;3.70;;
66633;SDS011;53546;52.184;5.596;2022-12-18T16:42:42;5.28;;;3.88;;
66633;SDS011;53546;52.184;5.596;2022-12-18T16:45:09;5.30;;;3.85;;
66633;SDS011;53546;52.184;5.596;2022-12-18T16:47:36;6.95;;;3.95;;
66633;SDS011;53546;52.184;5.596;2022-12-18T16:50:01;5.20;;;3.80;;
66633;SDS011;53546;52.184;5.596;2022-12-18T16:52:28;4.32;;;3.40;;
66633;SDS011;53546;52.184;5.596;2022-12-18T16:54:54;6.10;;;4.07;;
66633;SDS011;53546;52.184;5.596;2022-12-18T16:57:20;5.22;;;3.85;;
66633;SDS011;53546;52.184;5.596;2022-12-18T16:59:45;4.45;;;3.50;;
66633;SDS011;53546;52.184;5.596;2022-12-18T17:04:41;4.43;;;3.53;;